sensor_id;sensor_type;location;lat;lon;timestamp;pressure;altitude;pressure_sealevel;temperature;humidity
74270;BME280;62754;48.252;11.654;2023-12-07T00:01:19;96342.97;;;1.65;89.03
74270;BME280;62754;48.252;11.654;2023-12-07T00:03:45;96346.41;;;1.64;89.03
74270;BME280;62754;48.252;11.654;2023-12-07T00:06:11;96352.13;;;1.69;88.87
74270;BME280;62754;48.252;11.654;2023-12-07T00:08:37;96353.84;;;1.69;88.43
74270;BME280;62754;48.252;11.654;2023-12-07T00:11:03;96348.81;;;1.67;88.46
74270;BME280;62754;48.252;11.654;2023-12-07T00:13:29;96350.34;;;1.71;88.19
74270;BME280;62754;48.252;11.654;2023-12-07T00:15:55;96353.06;;;1.67;88.71
74270;BME280;62754;48.252;11.654;2023-12-07T00:18:20;96344.50;;;1.69;88.47
74270;BME280;62754;48.252;11.654;2023-12-07T00:20:46;96353.25;;;1.82;87.40
74270;BME280;62754;48.252;11.654;2023-12-07T00:23:12;96335.59;;;1.79;87.03
74270;BME280;62754;48.252;11.654;2023-12-07T00:25:41;96340.00;;;1.76;87.02
74270;BME280;62754;48.252;11.654;2023-12-07T00:28:07;96334.34;;;1.69;87.52
74270;BME280;62754;48.252;11.654;2023-12-07T00:30:33;96341.31;;;1.64;87.70
74270;BME280;62754;48.252;11.654;2023-12-07T00:32:59;96355.16;;;1.57;87.68
74270;BME280;62754;48.252;11.654;2023-12-07T00:35:25;96350.44;;;1.48;87.54
74270;BME280;62754;48.252;11.654;2023-12-07T00:37:54;96354.00;;;1.44;88.42
74270;BME280;62754;48.252;11.654;2023-12-07T00:40:21;96360.72;;;1.45;88.75
74270;BME280;62754;48.252;11.654;2023-12-07T00:42:47;96361.72;;;1.41;88.89
74270;BME280;62754;48.252;11.654;2023-12-07T00:45:13;96357.53;;;1.40;89.18
74270;BME280;62754;48.252;11.654;2023-12-07T00:47:39;96356.97;;;1.33;89.05
74270;BME280;62754;48.252;11.654;2023-12-07T00:50:05;96366.28;;;1.33;89.09
74270;BME280;62754;48.252;11.654;2023-12-07T00:52:31;96362.03;;;1.33;89.11
74270;BME280;62754;48.252;11.654;2023-12-07T00:54:57;96358.66;;;1.33;89.25
74270;BME280;62754;48.252;11.654;2023-12-07T00:57:23;96368.78;;;1.34;89.31
74270;BME280;62754;48.252;11.654;2023-12-07T00:59:49;96358.00;;;1.28;89.92
74270;BME280;62754;48.252;11.654;2023-12-07T01:02:15;96371.50;;;1.30;90.06
74270;BME280;62754;48.252;11.654;2023-12-07T01:04:41;96376.38;;;1.34;89.88
74270;BME280;62754;48.252;11.654;2023-12-07T01:07:07;96373.91;;;1.33;89.80
74270;BME280;62754;48.252;11.654;2023-12-07T01:09:33;96380.31;;;1.20;90.54
74270;BME280;62754;48.252;11.654;2023-12-07T01:12:01;96384.78;;;1.15;90.58
74270;BME280;62754;48.252;11.654;2023-12-07T01:14:27;96383.66;;;1.00;91.89
74270;BME280;62754;48.252;11.654;2023-12-07T01:16:52;96386.53;;;0.91;92.30
74270;BME280;62754;48.252;11.654;2023-12-07T01:19:18;96388.91;;;0.95;92.04
74270;BME280;62754;48.252;11.654;2023-12-07T01:21:44;96386.09;;;0.80;92.92
74270;BME280;62754;48.252;11.654;2023-12-07T01:24:10;96384.97;;;0.87;92.86
74270;BME280;62754;48.252;11.654;2023-12-07T01:26:36;96390.50;;;0.75;93.23
74270;BME280;62754;48.252;11.654;2023-12-07T01:29:02;96386.66;;;0.65;94.05
74270;BME280;62754;48.252;11.654;2023-12-07T01:31:28;96389.75;;;0.73;93.93
74270;BME280;62754;48.252;11.654;2023-12-07T01:33:55;96401.22;;;0.60;93.97
74270;BME280;62754;48.252;11.654;2023-12-07T01:36:21;96410.88;;;0.50;94.33
74270;BME280;62754;48.252;11.654;2023-12-07T01:38:47;96404.84;;;0.53;94.27
74270;BME280;62754;48.252;11.654;2023-12-07T01:41:12;96399.72;;;0.54;94.66
74270;BME280;62754;48.252;11.654;2023-12-07T01:43:45;96411.78;;;0.47;94.82
74270;BME280;62754;48.252;11.654;2023-12-07T01:46:11;96403.41;;;0.45;94.97
74270;BME280;62754;48.252;11.654;2023-12-07T01:48:37;96413.66;;;0.42;94.69
74270;BME280;62754;48.252;11.654;2023-12-07T01:51:03;96410.22;;;0.43;95.23
74270;BME280;62754;48.252;11.654;2023-12-07T01:53:29;96407.06;;;0.38;95.10
74270;BME280;62754;48.252;11.654;2023-12-07T01:55:55;96409.50;;;0.40;95.01
74270;BME280;62754;48.252;11.654;2023-12-07T01:58:22;96415.25;;;0.45;94.72
74270;BME280;62754;48.252;11.654;2023-12-07T02:00:49;96425.59;;;0.39;94.59
74270;BME280;62754;48.252;11.654;2023-12-07T02:03:16;96421.50;;;0.35;95.52
74270;BME280;62754;48.252;11.654;2023-12-07T02:05:43;96427.53;;;0.32;95.90
74270;BME280;62754;48.252;11.654;2023-12-07T02:08:09;96425.66;;;0.37;95.78
74270;BME280;62754;48.252;11.654;2023-12-07T02:10:35;96420.38;;;0.43;95.42
74270;BME280;62754;48.252;11.654;2023-12-07T02:13:01;96423.72;;;0.44;95.28
74270;BME280;62754;48.252;11.654;2023-12-07T02:15:27;96423.97;;;0.38;95.39
74270;BME280;62754;48.252;11.654;2023-12-07T02:17:58;96422.03;;;0.44;95.23
74270;BME280;62754;48.252;11.654;2023-12-07T02:21:13;96423.81;;;0.42;94.91
74270;BME280;62754;48.252;11.654;2023-12-07T02:23:19;96420.19;;;0.25;95.22
74270;BME280;62754;48.252;11.654;2023-12-07T02:29:08;96438.19;;;0.17;96.42
74270;BME280;62754;48.252;11.654;2023-12-07T02:31:34;96435.75;;;0.14;96.58
74270;BME280;62754;48.252;11.654;2023-12-07T02:34:00;96431.72;;;0.09;97.01
74270;BME280;62754;48.252;11.654;2023-12-07T02:36:27;96428.47;;;0.05;96.81
74270;BME280;62754;48.252;11.654;2023-12-07T02:38:56;96428.81;;;-0.06;97.86
74270;BME280;62754;48.252;11.654;2023-12-07T02:41:25;96433.94;;;-0.07;97.57
74270;BME280;62754;48.252;11.654;2023-12-07T02:43:51;96427.38;;;-0.13;97.72
74270;BME280;62754;48.252;11.654;2023-12-07T02:46:18;96438.63;;;-0.21;98.05
74270;BME280;62754;48.252;11.654;2023-12-07T02:48:43;96444.31;;;-0.15;98.80
74270;BME280;62754;48.252;11.654;2023-12-07T02:51:09;96442.84;;;-0.22;98.20
74270;BME280;62754;48.252;11.654;2023-12-07T02:53:35;96453.59;;;-0.15;97.70
74270;BME280;62754;48.252;11.654;2023-12-07T02:56:01;96454.44;;;-0.15;97.95
74270;BME280;62754;48.252;11.654;2023-12-07T02:58:27;96452.22;;;-0.24;97.51
74270;BME280;62754;48.252;11.654;2023-12-07T03:00:53;96453.56;;;-0.14;96.77
74270;BME280;62754;48.252;11.654;2023-12-07T03:03:19;96449.72;;;-0.25;97.58
74270;BME280;62754;48.252;11.654;2023-12-07T03:05:45;96457.44;;;-0.28;97.64
74270;BME280;62754;48.252;11.654;2023-12-07T03:08:11;96456.69;;;-0.32;97.72
74270;BME280;62754;48.252;11.654;2023-12-07T03:10:37;96454.78;;;-0.25;97.49
74270;BME280;62754;48.252;11.654;2023-12-07T03:13:02;96462.41;;;-0.27;97.76
74270;BME280;62754;48.252;11.654;2023-12-07T03:15:28;96461.97;;;-0.12;97.44
74270;BME280;62754;48.252;11.654;2023-12-07T03:17:54;96467.25;;;-0.19;97.29
74270;BME280;62754;48.252;11.654;2023-12-07T03:20:20;96460.03;;;-0.05;97.30
74270;BME280;62754;48.252;11.654;2023-12-07T03:22:46;96460.94;;;-0.08;96.64
74270;BME280;62754;48.252;11.654;2023-12-07T03:25:12;96456.63;;;-0.04;96.20
74270;BME280;62754;48.252;11.654;2023-12-07T03:27:38;96462.63;;;-0.07;96.51
74270;BME280;62754;48.252;11.654;2023-12-07T03:30:04;96454.16;;;-0.06;96.33
74270;BME280;62754;48.252;11.654;2023-12-07T03:32:30;96454.47;;;0.10;96.26
74270;BME280;62754;48.252;11.654;2023-12-07T03:34:56;96458.09;;;0.03;95.56
74270;BME280;62754;48.252;11.654;2023-12-07T03:37:22;96460.47;;;0.08;95.47
74270;BME280;62754;48.252;11.654;2023-12-07T03:39:48;96465.44;;;0.11;95.19
74270;BME280;62754;48.252;11.654;2023-12-07T03:42:14;96461.50;;;0.02;94.96
74270;BME280;62754;48.252;11.654;2023-12-07T03:44:40;96463.56;;;0.16;94.59
74270;BME280;62754;48.252;11.654;2023-12-07T03:47:05;96469.56;;;0.13;94.29
74270;BME280;62754;48.252;11.654;2023-12-07T03:49:31;96478.50;;;0.23;93.76
74270;BME280;62754;48.252;11.654;2023-12-07T03:51:57;96471.59;;;0.28;93.00
74270;BME280;62754;48.252;11.654;2023-12-07T03:54:23;96465.06;;;0.21;92.89
74270;BME280;62754;48.252;11.654;2023-12-07T03:56:49;96467.72;;;0.18;93.01
74270;BME280;62754;48.252;11.654;2023-12-07T03:59:15;96475.41;;;0.15;93.06
74270;BME280;62754;48.252;11.654;2023-12-07T04:01:41;96475.09;;;0.24;92.12
74270;BME280;62754;48.252;11.654;2023-12-07T04:04:07;96465.59;;;0.31;91.57
74270;BME280;62754;48.252;11.654;2023-12-07T04:06:33;96469.16;;;0.25;91.46
74270;BME280;62754;48.252;11.654;2023-12-07T04:08:58;96475.88;;;0.26;91.17
74270;BME280;62754;48.252;11.654;2023-12-07T04:11:24;96474.13;;;0.28;90.77
74270;BME280;62754;48.252;11.654;2023-12-07T04:13:50;96477.66;;;-0.02;92.33
74270;BME280;62754;48.252;11.654;2023-12-07T04:16:16;96483.84;;;-0.11;92.17
74270;BME280;62754;48.252;11.654;2023-12-07T04:18:42;96474.44;;;-0.07;92.20
74270;BME280;62754;48.252;11.654;2023-12-07T04:21:08;96485.47;;;-0.08;91.97
74270;BME280;62754;48.252;11.654;2023-12-07T04:23:34;96488.09;;;-0.11;92.22
74270;BME280;62754;48.252;11.654;2023-12-07T04:26:00;96486.63;;;-0.18;92.40
74270;BME280;62754;48.252;11.654;2023-12-07T04:28:26;96485.28;;;-0.28;92.46
74270;BME280;62754;48.252;11.654;2023-12-07T04:30:52;96482.53;;;-0.22;92.08
74270;BME280;62754;48.252;11.654;2023-12-07T04:33:18;96488.56;;;-0.26;91.98
74270;BME280;62754;48.252;11.654;2023-12-07T04:35:43;96492.63;;;-0.21;91.94
74270;BME280;62754;48.252;11.654;2023-12-07T04:38:09;96489.47;;;-0.27;92.24
74270;BME280;62754;48.252;11.654;2023-12-07T04:40:35;96489.72;;;-0.35;92.33
74270;BME280;62754;48.252;11.654;2023-12-07T04:43:02;96495.53;;;-0.33;92.22
74270;BME280;62754;48.252;11.654;2023-12-07T04:45:28;96500.69;;;-0.36;92.77
74270;BME280;62754;48.252;11.654;2023-12-07T04:47:54;96497.47;;;-0.41;92.19
74270;BME280;62754;48.252;11.654;2023-12-07T04:50:22;96507.84;;;-0.50;92.46
74270;BME280;62754;48.252;11.654;2023-12-07T04:52:48;96507.09;;;-0.52;92.80
74270;BME280;62754;48.252;11.654;2023-12-07T04:55:14;96511.19;;;-0.48;92.67
74270;BME280;62754;48.252;11.654;2023-12-07T04:57:41;96512.84;;;-0.47;92.49
74270;BME280;62754;48.252;11.654;2023-12-07T05:00:07;96509.25;;;-0.40;92.47
74270;BME280;62754;48.252;11.654;2023-12-07T05:02:35;96516.97;;;-0.44;91.86
74270;BME280;62754;48.252;11.654;2023-12-07T05:05:02;96513.44;;;-0.39;91.82
74270;BME280;62754;48.252;11.654;2023-12-07T05:07:28;96507.94;;;-0.52;91.62
74270;BME280;62754;48.252;11.654;2023-12-07T05:09:54;96509.72;;;-0.55;91.75
74270;BME280;62754;48.252;11.654;2023-12-07T05:12:20;96501.44;;;-0.60;92.30
74270;BME280;62754;48.252;11.654;2023-12-07T05:14:46;96505.56;;;-0.58;92.09
74270;BME280;62754;48.252;11.654;2023-12-07T05:17:12;96501.28;;;-0.56;92.03
74270;BME280;62754;48.252;11.654;2023-12-07T05:19:38;96504.56;;;-0.52;92.03
74270;BME280;62754;48.252;11.654;2023-12-07T05:22:04;96501.53;;;-0.63;92.31
74270;BME280;62754;48.252;11.654;2023-12-07T05:24:30;96501.53;;;-0.63;92.38
74270;BME280;62754;48.252;11.654;2023-12-07T05:26:59;96502.25;;;-0.60;92.42
74270;BME280;62754;48.252;11.654;2023-12-07T05:29:25;96501.47;;;-0.62;91.92
74270;BME280;62754;48.252;11.654;2023-12-07T05:31:51;96507.31;;;-0.60;91.78
74270;BME280;62754;48.252;11.654;2023-12-07T05:34:17;96511.56;;;-0.60;91.01
74270;BME280;62754;48.252;11.654;2023-12-07T05:36:44;96508.28;;;-0.64;91.18
74270;BME280;62754;48.252;11.654;2023-12-07T05:39:11;96511.59;;;-0.62;90.83
74270;BME280;62754;48.252;11.654;2023-12-07T05:41:38;96504.91;;;-0.64;90.93
74270;BME280;62754;48.252;11.654;2023-12-07T05:44:04;96511.56;;;-0.60;90.71
74270;BME280;62754;48.252;11.654;2023-12-07T05:46:30;96516.75;;;-0.65;90.33
74270;BME280;62754;48.252;11.654;2023-12-07T05:48:56;96518.38;;;-0.62;89.86
74270;BME280;62754;48.252;11.654;2023-12-07T05:51:23;96505.72;;;-0.62;89.86
74270;BME280;62754;48.252;11.654;2023-12-07T05:53:49;96507.28;;;-0.58;89.42
74270;BME280;62754;48.252;11.654;2023-12-07T05:56:21;96498.78;;;-0.56;88.90
74270;BME280;62754;48.252;11.654;2023-12-07T05:58:47;96507.44;;;-0.64;89.07
74270;BME280;62754;48.252;11.654;2023-12-07T06:01:16;96509.22;;;-0.66;89.13
74270;BME280;62754;48.252;11.654;2023-12-07T06:03:43;96503.13;;;-0.61;88.60
74270;BME280;62754;48.252;11.654;2023-12-07T06:06:09;96506.69;;;-0.66;88.42
74270;BME280;62754;48.252;11.654;2023-12-07T06:08:37;96504.38;;;-0.74;89.07
74270;BME280;62754;48.252;11.654;2023-12-07T06:11:03;96500.91;;;-0.71;88.98
74270;BME280;62754;48.252;11.654;2023-12-07T06:13:29;96494.19;;;-0.72;88.80
74270;BME280;62754;48.252;11.654;2023-12-07T06:15:55;96502.59;;;-0.70;88.27
74270;BME280;62754;48.252;11.654;2023-12-07T06:18:21;96503.41;;;-0.70;88.70
74270;BME280;62754;48.252;11.654;2023-12-07T06:20:46;96503.59;;;-0.76;88.83
74270;BME280;62754;48.252;11.654;2023-12-07T06:23:12;96506.22;;;-0.79;88.26
74270;BME280;62754;48.252;11.654;2023-12-07T06:25:39;96503.81;;;-0.83;88.30
74270;BME280;62754;48.252;11.654;2023-12-07T06:28:05;96501.38;;;-0.86;88.32
74270;BME280;62754;48.252;11.654;2023-12-07T06:30:31;96513.19;;;-0.87;88.67
74270;BME280;62754;48.252;11.654;2023-12-07T06:32:57;96501.38;;;-0.86;89.13
74270;BME280;62754;48.252;11.654;2023-12-07T06:35:23;96512.41;;;-0.89;89.24
74270;BME280;62754;48.252;11.654;2023-12-07T06:37:49;96514.84;;;-0.86;89.06
74270;BME280;62754;48.252;11.654;2023-12-07T06:40:15;96522.13;;;-0.75;88.13
74270;BME280;62754;48.252;11.654;2023-12-07T06:42:41;96519.63;;;-0.77;88.02
74270;BME280;62754;48.252;11.654;2023-12-07T06:45:07;96521.38;;;-0.79;87.68
74270;BME280;62754;48.252;11.654;2023-12-07T06:47:37;96524.16;;;-0.88;87.68
74270;BME280;62754;48.252;11.654;2023-12-07T06:50:04;96537.41;;;-1.09;87.82
74270;BME280;62754;48.252;11.654;2023-12-07T06:52:29;96534.22;;;-1.16;88.96
74270;BME280;62754;48.252;11.654;2023-12-07T06:54:55;96541.03;;;-1.50;88.85
74270;BME280;62754;48.252;11.654;2023-12-07T06:57:22;96539.28;;;-2.16;91.44
74270;BME280;62754;48.252;11.654;2023-12-07T06:59:48;96534.78;;;-2.03;92.21
74270;BME280;62754;48.252;11.654;2023-12-07T07:02:14;96539.75;;;-2.00;92.76
74270;BME280;62754;48.252;11.654;2023-12-07T07:04:40;96542.47;;;-2.08;92.60
74270;BME280;62754;48.252;11.654;2023-12-07T07:07:06;96543.72;;;-2.25;93.50
74270;BME280;62754;48.252;11.654;2023-12-07T07:09:32;96537.66;;;-2.18;93.37
74270;BME280;62754;48.252;11.654;2023-12-07T07:11:58;96535.53;;;-2.00;92.76
74270;BME280;62754;48.252;11.654;2023-12-07T07:14:24;96543.56;;;-2.19;92.99
74270;BME280;62754;48.252;11.654;2023-12-07T07:16:50;96543.22;;;-2.04;92.29
74270;BME280;62754;48.252;11.654;2023-12-07T07:19:17;96545.44;;;-1.92;91.53
74270;BME280;62754;48.252;11.654;2023-12-07T07:21:43;96544.50;;;-1.86;93.13
74270;BME280;62754;48.252;11.654;2023-12-07T07:24:09;96545.63;;;-1.98;92.52
74270;BME280;62754;48.252;11.654;2023-12-07T07:26:35;96551.53;;;-1.99;93.20
74270;BME280;62754;48.252;11.654;2023-12-07T07:29:01;96548.84;;;-1.93;92.74
74270;BME280;62754;48.252;11.654;2023-12-07T07:31:29;96549.47;;;-1.83;92.50
74270;BME280;62754;48.252;11.654;2023-12-07T07:33:55;96544.25;;;-1.77;92.10
74270;BME280;62754;48.252;11.654;2023-12-07T07:36:21;96545.72;;;-1.69;91.13
74270;BME280;62754;48.252;11.654;2023-12-07T07:38:47;96554.00;;;-1.62;91.45
74270;BME280;62754;48.252;11.654;2023-12-07T07:41:13;96547.09;;;-1.56;91.15
74270;BME280;62754;48.252;11.654;2023-12-07T07:43:39;96552.06;;;-1.54;90.65
74270;BME280;62754;48.252;11.654;2023-12-07T07:46:06;96552.91;;;-1.54;90.72
74270;BME280;62754;48.252;11.654;2023-12-07T07:48:33;96556.03;;;-1.44;91.58
74270;BME280;62754;48.252;11.654;2023-12-07T07:50:59;96545.53;;;-1.29;90.26
74270;BME280;62754;48.252;11.654;2023-12-07T07:53:25;96548.69;;;-1.21;90.33
74270;BME280;62754;48.252;11.654;2023-12-07T07:55:51;96548.59;;;-1.18;90.40
74270;BME280;62754;48.252;11.654;2023-12-07T07:58:17;96554.19;;;-1.07;90.57
74270;BME280;62754;48.252;11.654;2023-12-07T08:00:43;96547.84;;;-0.90;90.60
74270;BME280;62754;48.252;11.654;2023-12-07T08:03:11;96549.31;;;-0.83;89.63
74270;BME280;62754;48.252;11.654;2023-12-07T08:05:38;96552.16;;;-0.65;89.51
74270;BME280;62754;48.252;11.654;2023-12-07T08:08:04;96553.50;;;-0.53;88.73
74270;BME280;62754;48.252;11.654;2023-12-07T08:10:29;96548.06;;;-0.39;87.89
74270;BME280;62754;48.252;11.654;2023-12-07T08:12:55;96551.94;;;-0.29;87.47
74270;BME280;62754;48.252;11.654;2023-12-07T08:15:21;96552.28;;;-0.12;86.47
74270;BME280;62754;48.252;11.654;2023-12-07T08:17:47;96546.66;;;0.05;85.56
74270;BME280;62754;48.252;11.654;2023-12-07T08:20:13;96556.50;;;0.15;85.15
74270;BME280;62754;48.252;11.654;2023-12-07T08:22:40;96553.28;;;0.35;84.43
74270;BME280;62754;48.252;11.654;2023-12-07T08:25:07;96547.75;;;0.50;83.37
74270;BME280;62754;48.252;11.654;2023-12-07T08:27:36;96547.63;;;0.53;83.60
74270;BME280;62754;48.252;11.654;2023-12-07T08:30:04;96549.31;;;0.77;82.03
74270;BME280;62754;48.252;11.654;2023-12-07T08:32:30;96541.66;;;1.04;81.30
74270;BME280;62754;48.252;11.654;2023-12-07T08:34:56;96545.25;;;1.43;79.45
74270;BME280;62754;48.252;11.654;2023-12-07T08:37:23;96543.69;;;1.62;78.07
74270;BME280;62754;48.252;11.654;2023-12-07T08:39:49;96543.81;;;2.03;76.97
74270;BME280;62754;48.252;11.654;2023-12-07T08:42:15;96540.31;;;2.27;75.98
74270;BME280;62754;48.252;11.654;2023-12-07T08:44:42;96544.50;;;2.48;75.45
74270;BME280;62754;48.252;11.654;2023-12-07T08:47:09;96539.63;;;2.64;75.43
74270;BME280;62754;48.252;11.654;2023-12-07T08:49:35;96548.22;;;2.81;75.35
74270;BME280;62754;48.252;11.654;2023-12-07T08:52:02;96537.56;;;2.92;74.67
74270;BME280;62754;48.252;11.654;2023-12-07T08:54:28;96534.75;;;2.98;73.65
74270;BME280;62754;48.252;11.654;2023-12-07T08:56:55;96540.03;;;3.32;74.06
74270;BME280;62754;48.252;11.654;2023-12-07T08:59:21;96541.13;;;3.27;72.69
74270;BME280;62754;48.252;11.654;2023-12-07T09:01:46;96535.84;;;3.50;71.98
74270;BME280;62754;48.252;11.654;2023-12-07T09:04:12;96527.91;;;3.56;70.59
74270;BME280;62754;48.252;11.654;2023-12-07T09:06:38;96532.00;;;3.96;71.33
74270;BME280;62754;48.252;11.654;2023-12-07T09:09:04;96528.16;;;3.88;70.21
74270;BME280;62754;48.252;11.654;2023-12-07T09:11:33;96533.91;;;4.10;70.41
74270;BME280;62754;48.252;11.654;2023-12-07T09:13:59;96533.09;;;4.26;69.07
74270;BME280;62754;48.252;11.654;2023-12-07T09:16:26;96522.59;;;4.50;68.72
74270;BME280;62754;48.252;11.654;2023-12-07T09:18:52;96525.22;;;4.48;67.33
74270;BME280;62754;48.252;11.654;2023-12-07T09:21:18;96524.16;;;4.52;66.59
74270;BME280;62754;48.252;11.654;2023-12-07T09:23:44;96521.88;;;4.48;67.24
74270;BME280;62754;48.252;11.654;2023-12-07T09:26:10;96527.88;;;4.97;64.37
74270;BME280;62754;48.252;11.654;2023-12-07T09:28:36;96517.53;;;5.15;61.94
74270;BME280;62754;48.252;11.654;2023-12-07T09:31:02;96518.56;;;5.28;61.29
74270;BME280;62754;48.252;11.654;2023-12-07T09:33:28;96522.47;;;5.51;61.34
74270;BME280;62754;48.252;11.654;2023-12-07T09:35:54;96524.03;;;5.69;61.07
74270;BME280;62754;48.252;11.654;2023-12-07T09:38:19;96520.88;;;5.49;61.08
74270;BME280;62754;48.252;11.654;2023-12-07T09:40:45;96525.84;;;5.36;61.45
74270;BME280;62754;48.252;11.654;2023-12-07T09:43:12;96521.81;;;5.63;61.67
74270;BME280;62754;48.252;11.654;2023-12-07T09:45:38;96525.50;;;5.73;60.79
74270;BME280;62754;48.252;11.654;2023-12-07T09:48:05;96519.81;;;5.68;60.13
74270;BME280;62754;48.252;11.654;2023-12-07T09:50:31;96522.38;;;6.00;59.33
74270;BME280;62754;48.252;11.654;2023-12-07T09:52:58;96513.44;;;6.22;57.50
74270;BME280;62754;48.252;11.654;2023-12-07T09:55:24;96508.00;;;6.29;58.23
74270;BME280;62754;48.252;11.654;2023-12-07T09:57:50;96505.34;;;6.60;57.80
74270;BME280;62754;48.252;11.654;2023-12-07T10:00:19;96499.56;;;6.56;57.65
74270;BME280;62754;48.252;11.654;2023-12-07T10:02:46;96498.69;;;6.72;56.79
74270;BME280;62754;48.252;11.654;2023-12-07T10:05:15;96501.63;;;6.94;57.01
74270;BME280;62754;48.252;11.654;2023-12-07T10:07:46;96498.13;;;7.23;55.35
74270;BME280;62754;48.252;11.654;2023-12-07T10:10:16;96496.84;;;7.44;54.41
74270;BME280;62754;48.252;11.654;2023-12-07T10:12:53;96493.88;;;7.64;53.03
74270;BME280;62754;48.252;11.654;2023-12-07T10:15:20;96483.88;;;7.74;52.78
74270;BME280;62754;48.252;11.654;2023-12-07T10:17:54;96492.75;;;7.68;51.76
74270;BME280;62754;48.252;11.654;2023-12-07T10:20:22;96486.00;;;7.94;50.95
74270;BME280;62754;48.252;11.654;2023-12-07T10:22:49;96483.50;;;8.20;50.09
74270;BME280;62754;48.252;11.654;2023-12-07T10:25:27;96483.38;;;8.35;47.40
74270;BME280;62754;48.252;11.654;2023-12-07T10:27:54;96487.13;;;8.56;45.87
74270;BME280;62754;48.252;11.654;2023-12-07T10:30:20;96483.13;;;8.90;49.56
74270;BME280;62754;48.252;11.654;2023-12-07T10:32:50;96478.78;;;9.16;47.17
74270;BME280;62754;48.252;11.654;2023-12-07T10:35:17;96474.75;;;9.37;45.12
74270;BME280;62754;48.252;11.654;2023-12-07T10:37:44;96474.44;;;9.42;41.66
74270;BME280;62754;48.252;11.654;2023-12-07T10:40:10;96467.59;;;9.90;40.84
74270;BME280;62754;48.252;11.654;2023-12-07T10:42:37;96466.50;;;9.57;43.28
74270;BME280;62754;48.252;11.654;2023-12-07T10:45:07;96465.59;;;9.46;45.04
74270;BME280;62754;48.252;11.654;2023-12-07T10:47:37;96460.59;;;9.19;44.25
74270;BME280;62754;48.252;11.654;2023-12-07T10:50:08;96454.28;;;9.36;40.50
74270;BME280;62754;48.252;11.654;2023-12-07T10:52:48;96454.56;;;9.56;41.54
74270;BME280;62754;48.252;11.654;2023-12-07T10:55:22;96452.41;;;9.74;43.88
74270;BME280;62754;48.252;11.654;2023-12-07T10:57:52;96453.69;;;10.51;42.58
74270;BME280;62754;48.252;11.654;2023-12-07T11:00:19;96443.03;;;10.44;43.34
74270;BME280;62754;48.252;11.654;2023-12-07T11:02:45;96443.38;;;10.51;42.91
74270;BME280;62754;48.252;11.654;2023-12-07T11:05:12;96445.66;;;10.08;43.96
74270;BME280;62754;48.252;11.654;2023-12-07T11:08:07;96439.06;;;9.93;44.15
74270;BME280;62754;48.252;11.654;2023-12-07T11:13:32;96445.84;;;9.94;42.45
74270;BME280;62754;48.252;11.654;2023-12-07T11:16:00;96448.81;;;10.00;42.83
74270;BME280;62754;48.252;11.654;2023-12-07T11:18:27;96437.44;;;9.92;43.61
74270;BME280;62754;48.252;11.654;2023-12-07T11:20:54;96434.88;;;9.92;44.07
74270;BME280;62754;48.252;11.654;2023-12-07T11:23:20;96427.94;;;9.92;43.64
74270;BME280;62754;48.252;11.654;2023-12-07T11:25:47;96416.06;;;9.55;44.44
74270;BME280;62754;48.252;11.654;2023-12-07T11:28:15;96431.88;;;9.38;44.32
74270;BME280;62754;48.252;11.654;2023-12-07T11:30:43;96433.19;;;9.43;44.00
74270;BME280;62754;48.252;11.654;2023-12-07T11:33:10;96425.53;;;9.18;42.79
74270;BME280;62754;48.252;11.654;2023-12-07T11:36:02;96420.88;;;9.23;42.21
74270;BME280;62754;48.252;11.654;2023-12-07T11:38:28;96418.97;;;9.01;43.23
74270;BME280;62754;48.252;11.654;2023-12-07T11:40:56;96415.59;;;8.88;41.20
74270;BME280;62754;48.252;11.654;2023-12-07T11:46:03;96409.47;;;8.53;44.92
74270;BME280;62754;48.252;11.654;2023-12-07T11:48:29;96411.19;;;8.90;44.17
74270;BME280;62754;48.252;11.654;2023-12-07T11:53:28;96409.91;;;9.92;40.97
74270;BME280;62754;48.252;11.654;2023-12-07T11:55:56;96406.41;;;9.22;42.31
74270;BME280;62754;48.252;11.654;2023-12-07T11:58:31;96408.22;;;8.58;43.55
74270;BME280;62754;48.252;11.654;2023-12-07T12:00:57;96406.56;;;8.57;41.65
74270;BME280;62754;48.252;11.654;2023-12-07T12:03:28;96405.78;;;8.57;43.21
74270;BME280;62754;48.252;11.654;2023-12-07T12:05:55;96400.09;;;8.77;42.68
74270;BME280;62754;48.252;11.654;2023-12-07T12:08:22;96389.31;;;8.59;40.74
74270;BME280;62754;48.252;11.654;2023-12-07T12:10:50;96378.75;;;8.64;39.16
74270;BME280;62754;48.252;11.654;2023-12-07T12:13:35;96389.94;;;8.38;40.03
74270;BME280;62754;48.252;11.654;2023-12-07T12:16:01;96395.19;;;8.36;40.48
74270;BME280;62754;48.252;11.654;2023-12-07T12:18:27;96383.00;;;8.13;41.18
74270;BME280;62754;48.252;11.654;2023-12-07T12:20:53;96377.06;;;8.25;41.88
74270;BME280;62754;48.252;11.654;2023-12-07T12:23:20;96383.34;;;8.46;41.89
74270;BME280;62754;48.252;11.654;2023-12-07T12:25:46;96387.16;;;8.53;42.38
74270;BME280;62754;48.252;11.654;2023-12-07T12:28:16;96393.66;;;8.34;42.30
74270;BME280;62754;48.252;11.654;2023-12-07T12:30:43;96380.41;;;8.00;43.40
74270;BME280;62754;48.252;11.654;2023-12-07T12:33:09;96365.03;;;8.00;43.31
74270;BME280;62754;48.252;11.654;2023-12-07T12:35:35;96360.19;;;7.96;44.25
74270;BME280;62754;48.252;11.654;2023-12-07T12:38:01;96371.06;;;7.87;44.49
74270;BME280;62754;48.252;11.654;2023-12-07T12:40:29;96372.44;;;7.65;44.59
74270;BME280;62754;48.252;11.654;2023-12-07T12:42:57;96366.06;;;7.98;44.13
74270;BME280;62754;48.252;11.654;2023-12-07T12:45:23;96373.75;;;7.98;44.16
74270;BME280;62754;48.252;11.654;2023-12-07T12:47:49;96365.56;;;8.18;43.19
74270;BME280;62754;48.252;11.654;2023-12-07T12:50:34;96364.97;;;8.65;42.74
74270;BME280;62754;48.252;11.654;2023-12-07T12:53:05;96354.75;;;8.89;41.76
74270;BME280;62754;48.252;11.654;2023-12-07T12:55:39;96355.81;;;8.74;41.56
74270;BME280;62754;48.252;11.654;2023-12-07T12:58:09;96355.59;;;8.89;42.32
74270;BME280;62754;48.252;11.654;2023-12-07T13:00:38;96352.31;;;9.47;42.39
74270;BME280;62754;48.252;11.654;2023-12-07T13:03:06;96349.19;;;9.31;42.13
74270;BME280;62754;48.252;11.654;2023-12-07T13:05:32;96342.88;;;9.12;42.63